sensor_id;sensor_type;location;lat;lon;timestamp;temperature;humidity
1225;DHT22;602;48.000;7.840;2023-02-28T00:00:00;2.90;99.90
1225;DHT22;602;48.000;7.840;2023-02-28T00:02:33;3.00;99.90
1225;DHT22;602;48.000;7.840;2023-02-28T00:05:00;2.90;99.90
1225;DHT22;602;48.000;7.840;2023-02-28T00:07:28;3.00;99.90
1225;DHT22;602;48.000;7.840;2023-02-28T00:09:55;3.00;99.90
1225;DHT22;602;48.000;7.840;2023-02-28T00:12:24;3.10;99.90
1225;DHT22;602;48.000;7.840;2023-02-28T00:14:51;3.10;99.90
1225;DHT22;602;48.000;7.840;2023-02-28T00:17:17;3.10;99.90
1225;DHT22;602;48.000;7.840;2023-02-28T00:19:47;3.10;99.90
1225;DHT22;602;48.000;7.840;2023-02-28T00:22:15;3.10;99.90
1225;DHT22;602;48.000;7.840;2023-02-28T00:24:42;3.00;99.90
1225;DHT22;602;48.000;7.840;2023-02-28T00:27:09;3.00;99.90
1225;DHT22;602;48.000;7.840;2023-02-28T00:29:38;2.80;99.90
1225;DHT22;602;48.000;7.840;2023-02-28T00:32:05;2.80;99.90
1225;DHT22;602;48.000;7.840;2023-02-28T00:34:33;2.90;99.90
1225;DHT22;602;48.000;7.840;2023-02-28T00:37:03;2.90;99.90
1225;DHT22;602;48.000;7.840;2023-02-28T00:39:31;3.00;99.90
1225;DHT22;602;48.000;7.840;2023-02-28T00:41:59;3.00;99.90
1225;DHT22;602;48.000;7.840;2023-02-28T00:44:26;3.10;99.90
1225;DHT22;602;48.000;7.840;2023-02-28T00:46:54;3.10;99.90
1225;DHT22;602;48.000;7.840;2023-02-28T00:49:22;3.10;99.90
1225;DHT22;602;48.000;7.840;2023-02-28T00:51:49;2.90;99.90
1225;DHT22;602;48.000;7.840;2023-02-28T00:54:18;2.80;99.90
1225;DHT22;602;48.000;7.840;2023-02-28T00:56:45;3.00;99.90
1225;DHT22;602;48.000;7.840;2023-02-28T00:59:12;3.00;99.90
1225;DHT22;602;48.000;7.840;2023-02-28T01:01:39;3.10;99.90
1225;DHT22;602;48.000;7.840;2023-02-28T01:04:08;3.00;99.90
1225;DHT22;602;48.000;7.840;2023-02-28T01:06:35;3.00;99.90
1225;DHT22;602;48.000;7.840;2023-02-28T01:09:03;3.10;99.90
1225;DHT22;602;48.000;7.840;2023-02-28T01:11:30;3.10;99.90
1225;DHT22;602;48.000;7.840;2023-02-28T01:13:58;3.10;99.90
1225;DHT22;602;48.000;7.840;2023-02-28T01:16:26;3.00;99.90
1225;DHT22;602;48.000;7.840;2023-02-28T01:18:53;3.00;99.90
1225;DHT22;602;48.000;7.840;2023-02-28T01:21:21;3.00;99.90
1225;DHT22;602;48.000;7.840;2023-02-28T01:23:49;3.00;99.90
1225;DHT22;602;48.000;7.840;2023-02-28T01:26:18;3.10;99.90
1225;DHT22;602;48.000;7.840;2023-02-28T01:28:45;3.10;99.90
1225;DHT22;602;48.000;7.840;2023-02-28T01:31:12;2.90;99.90
1225;DHT22;602;48.000;7.840;2023-02-28T01:33:39;3.00;99.90
1225;DHT22;602;48.000;7.840;2023-02-28T01:36:08;3.20;99.90
1225;DHT22;602;48.000;7.840;2023-02-28T01:38:37;3.20;99.90
1225;DHT22;602;48.000;7.840;2023-02-28T01:41:05;3.20;99.90
1225;DHT22;602;48.000;7.840;2023-02-28T01:46:18;3.10;99.90
1225;DHT22;602;48.000;7.840;2023-02-28T01:48:49;3.00;99.90
1225;DHT22;602;48.000;7.840;2023-02-28T01:51:21;3.10;99.90
1225;DHT22;602;48.000;7.840;2023-02-28T01:53:54;3.10;99.90
1225;DHT22;602;48.000;7.840;2023-02-28T01:56:26;3.10;99.90
1225;DHT22;602;48.000;7.840;2023-02-28T01:58:55;3.10;99.90
1225;DHT22;602;48.000;7.840;2023-02-28T02:01:24;3.00;99.90
1225;DHT22;602;48.000;7.840;2023-02-28T02:03:54;3.10;99.90
1225;DHT22;602;48.000;7.840;2023-02-28T02:06:22;3.10;99.90
1225;DHT22;602;48.000;7.840;2023-02-28T02:08:51;3.10;99.90
1225;DHT22;602;48.000;7.840;2023-02-28T02:11:19;3.00;99.90
1225;DHT22;602;48.000;7.840;2023-02-28T02:14:01;3.00;99.90
1225;DHT22;602;48.000;7.840;2023-02-28T02:16:41;3.10;99.90
1225;DHT22;602;48.000;7.840;2023-02-28T02:19:26;3.00;99.90
1225;DHT22;602;48.000;7.840;2023-02-28T02:22:21;3.10;99.90
1225;DHT22;602;48.000;7.840;2023-02-28T02:25:20;3.10;99.90
1225;DHT22;602;48.000;7.840;2023-02-28T02:31:06;3.00;99.90
1225;DHT22;602;48.000;7.840;2023-02-28T02:34:16;3.10;99.90
1225;DHT22;602;48.000;7.840;2023-02-28T02:36:49;3.00;99.90
1225;DHT22;602;48.000;7.840;2023-02-28T02:39:22;3.10;99.90
1225;DHT22;602;48.000;7.840;2023-02-28T02:41:53;3.10;99.90
1225;DHT22;602;48.000;7.840;2023-02-28T02:44:22;3.20;99.90
1225;DHT22;602;48.000;7.840;2023-02-28T02:46:54;3.20;99.90
1225;DHT22;602;48.000;7.840;2023-02-28T02:49:26;3.10;99.90
1225;DHT22;602;48.000;7.840;2023-02-28T02:51:56;2.90;99.90
1225;DHT22;602;48.000;7.840;2023-02-28T02:54:27;2.90;99.90
1225;DHT22;602;48.000;7.840;2023-02-28T02:56:56;3.00;99.90
1225;DHT22;602;48.000;7.840;2023-02-28T02:59:25;3.00;99.90
1225;DHT22;602;48.000;7.840;2023-02-28T03:01:57;3.00;99.90
1225;DHT22;602;48.000;7.840;2023-02-28T03:04:28;3.00;99.90
1225;DHT22;602;48.000;7.840;2023-02-28T03:06:57;2.90;99.90
1225;DHT22;602;48.000;7.840;2023-02-28T03:09:24;2.90;99.90
1225;DHT22;602;48.000;7.840;2023-02-28T03:11:54;2.90;99.90
1225;DHT22;602;48.000;7.840;2023-02-28T03:14:33;2.90;99.90
1225;DHT22;602;48.000;7.840;2023-02-28T03:17:46;2.90;99.90
1225;DHT22;602;48.000;7.840;2023-02-28T03:20:27;3.00;99.90
1225;DHT22;602;48.000;7.840;2023-02-28T03:23:07;3.10;99.90
1225;DHT22;602;48.000;7.840;2023-02-28T03:25:42;3.00;99.90
1225;DHT22;602;48.000;7.840;2023-02-28T03:28:17;3.00;99.90
1225;DHT22;602;48.000;7.840;2023-02-28T03:30:49;3.10;99.90
1225;DHT22;602;48.000;7.840;2023-02-28T03:33:21;2.90;99.90
1225;DHT22;602;48.000;7.840;2023-02-28T03:35:54;2.90;99.90
1225;DHT22;602;48.000;7.840;2023-02-28T03:38:27;2.90;99.90
1225;DHT22;602;48.000;7.840;2023-02-28T03:41:00;3.00;99.90
1225;DHT22;602;48.000;7.840;2023-02-28T03:43:31;3.00;99.90
1225;DHT22;602;48.000;7.840;2023-02-28T03:46:01;3.00;99.90
1225;DHT22;602;48.000;7.840;2023-02-28T03:48:34;2.90;99.90
1225;DHT22;602;48.000;7.840;2023-02-28T03:51:05;2.90;99.90
1225;DHT22;602;48.000;7.840;2023-02-28T03:53:36;2.90;99.90
1225;DHT22;602;48.000;7.840;2023-02-28T03:56:09;2.90;99.90
1225;DHT22;602;48.000;7.840;2023-02-28T03:58:41;2.90;99.90
1225;DHT22;602;48.000;7.840;2023-02-28T04:01:11;2.80;99.90
1225;DHT22;602;48.000;7.840;2023-02-28T04:03:39;2.70;99.90
1225;DHT22;602;48.000;7.840;2023-02-28T04:06:13;2.60;99.90
1225;DHT22;602;48.000;7.840;2023-02-28T04:08:41;2.60;99.90
1225;DHT22;602;48.000;7.840;2023-02-28T04:11:21;2.60;99.90
1225;DHT22;602;48.000;7.840;2023-02-28T04:13:49;2.70;99.90
1225;DHT22;602;48.000;7.840;2023-02-28T04:16:16;2.80;99.90
1225;DHT22;602;48.000;7.840;2023-02-28T04:18:43;2.80;99.90
1225;DHT22;602;48.000;7.840;2023-02-28T04:21:11;2.70;99.90
1225;DHT22;602;48.000;7.840;2023-02-28T04:23:38;2.70;99.90
1225;DHT22;602;48.000;7.840;2023-02-28T04:26:06;2.70;99.90
1225;DHT22;602;48.000;7.840;2023-02-28T04:28:33;2.60;99.90
1225;DHT22;602;48.000;7.840;2023-02-28T04:31:01;2.60;99.90
1225;DHT22;602;48.000;7.840;2023-02-28T04:33:29;2.60;99.90
1225;DHT22;602;48.000;7.840;2023-02-28T04:36:00;2.50;99.90
1225;DHT22;602;48.000;7.840;2023-02-28T04:38:29;2.60;99.90
1225;DHT22;602;48.000;7.840;2023-02-28T04:40:57;2.50;99.90
1225;DHT22;602;48.000;7.840;2023-02-28T04:43:25;2.30;99.90
1225;DHT22;602;48.000;7.840;2023-02-28T04:45:52;2.30;99.90
1225;DHT22;602;48.000;7.840;2023-02-28T04:48:33;2.20;99.90
1225;DHT22;602;48.000;7.840;2023-02-28T04:51:07;2.30;99.90
1225;DHT22;602;48.000;7.840;2023-02-28T04:53:38;2.10;99.90
1225;DHT22;602;48.000;7.840;2023-02-28T04:56:06;2.30;99.90
1225;DHT22;602;48.000;7.840;2023-02-28T04:58:33;2.30;99.90
1225;DHT22;602;48.000;7.840;2023-02-28T05:01:05;2.40;99.90
1225;DHT22;602;48.000;7.840;2023-02-28T05:03:38;2.40;99.90
1225;DHT22;602;48.000;7.840;2023-02-28T05:06:06;2.20;99.90
1225;DHT22;602;48.000;7.840;2023-02-28T05:08:33;2.20;99.90
1225;DHT22;602;48.000;7.840;2023-02-28T05:11:02;2.30;99.90
1225;DHT22;602;48.000;7.840;2023-02-28T05:13:29;2.30;99.90
1225;DHT22;602;48.000;7.840;2023-02-28T05:15:56;2.30;99.90
1225;DHT22;602;48.000;7.840;2023-02-28T05:18:23;2.30;99.90
1225;DHT22;602;48.000;7.840;2023-02-28T05:20:50;2.40;99.90
1225;DHT22;602;48.000;7.840;2023-02-28T05:23:17;2.40;99.90
1225;DHT22;602;48.000;7.840;2023-02-28T05:25:46;2.40;99.90
1225;DHT22;602;48.000;7.840;2023-02-28T05:28:14;2.40;99.90
1225;DHT22;602;48.000;7.840;2023-02-28T05:30:41;2.40;99.90
1225;DHT22;602;48.000;7.840;2023-02-28T05:33:10;2.50;99.90
1225;DHT22;602;48.000;7.840;2023-02-28T05:35:38;2.40;99.90
1225;DHT22;602;48.000;7.840;2023-02-28T05:38:05;2.40;99.90
1225;DHT22;602;48.000;7.840;2023-02-28T05:40:32;2.30;99.90
1225;DHT22;602;48.000;7.840;2023-02-28T05:42:59;2.40;99.90
1225;DHT22;602;48.000;7.840;2023-02-28T05:45:28;2.40;99.90
1225;DHT22;602;48.000;7.840;2023-02-28T05:47:55;2.40;99.90
1225;DHT22;602;48.000;7.840;2023-02-28T05:50:22;2.40;99.90
1225;DHT22;602;48.000;7.840;2023-02-28T05:52:49;2.40;99.90
1225;DHT22;602;48.000;7.840;2023-02-28T05:55:16;2.40;99.90
1225;DHT22;602;48.000;7.840;2023-02-28T05:57:43;2.20;99.90
1225;DHT22;602;48.000;7.840;2023-02-28T06:00:12;2.20;99.90
1225;DHT22;602;48.000;7.840;2023-02-28T06:02:41;1.80;99.90
1225;DHT22;602;48.000;7.840;2023-02-28T06:05:13;1.70;99.90
1225;DHT22;602;48.000;7.840;2023-02-28T06:07:40;1.60;99.90
1225;DHT22;602;48.000;7.840;2023-02-28T06:10:08;1.80;99.90
1225;DHT22;602;48.000;7.840;2023-02-28T06:12:36;1.80;99.90
1225;DHT22;602;48.000;7.840;2023-02-28T06:15:04;1.70;99.90
1225;DHT22;602;48.000;7.840;2023-02-28T06:17:31;1.70;99.90
1225;DHT22;602;48.000;7.840;2023-02-28T06:19:59;1.80;99.90
1225;DHT22;602;48.000;7.840;2023-02-28T06:22:26;1.80;99.90
1225;DHT22;602;48.000;7.840;2023-02-28T06:24:53;1.60;99.90
1225;DHT22;602;48.000;7.840;2023-02-28T06:27:22;1.70;99.90
1225;DHT22;602;48.000;7.840;2023-02-28T06:29:53;1.70;99.90
1225;DHT22;602;48.000;7.840;2023-02-28T06:32:20;1.60;99.90
1225;DHT22;602;48.000;7.840;2023-02-28T06:34:47;1.70;99.90
1225;DHT22;602;48.000;7.840;2023-02-28T06:37:15;1.60;99.90
1225;DHT22;602;48.000;7.840;2023-02-28T06:39:42;1.50;99.90
1225;DHT22;602;48.000;7.840;2023-02-28T06:42:09;1.60;99.90
1225;DHT22;602;48.000;7.840;2023-02-28T06:44:36;1.50;99.90
1225;DHT22;602;48.000;7.840;2023-02-28T06:47:04;1.60;99.90
1225;DHT22;602;48.000;7.840;2023-02-28T06:49:34;1.60;99.90
1225;DHT22;602;48.000;7.840;2023-02-28T06:52:01;1.40;99.90
1225;DHT22;602;48.000;7.840;2023-02-28T06:54:30;1.50;99.90
1225;DHT22;602;48.000;7.840;2023-02-28T06:56:57;1.50;99.90
1225;DHT22;602;48.000;7.840;2023-02-28T06:59:24;1.70;99.90
1225;DHT22;602;48.000;7.840;2023-02-28T07:01:51;1.70;99.90
1225;DHT22;602;48.000;7.840;2023-02-28T07:04:18;1.70;99.90
1225;DHT22;602;48.000;7.840;2023-02-28T07:06:45;1.70;99.90
1225;DHT22;602;48.000;7.840;2023-02-28T07:09:12;1.60;99.90
1225;DHT22;602;48.000;7.840;2023-02-28T07:11:40;1.60;99.90
1225;DHT22;602;48.000;7.840;2023-02-28T07:14:08;1.60;99.90
1225;DHT22;602;48.000;7.840;2023-02-28T07:16:35;1.70;99.90
1225;DHT22;602;48.000;7.840;2023-02-28T07:22:53;1.80;99.90
1225;DHT22;602;48.000;7.840;2023-02-28T07:25:38;1.70;99.90
1225;DHT22;602;48.000;7.840;2023-02-28T07:28:32;1.80;99.90
1225;DHT22;602;48.000;7.840;2023-02-28T07:31:31;1.80;99.90
1225;DHT22;602;48.000;7.840;2023-02-28T07:34:12;1.90;99.90
1225;DHT22;602;48.000;7.840;2023-02-28T07:37:05;1.90;99.90
1225;DHT22;602;48.000;7.840;2023-02-28T07:39:37;1.90;99.90
1225;DHT22;602;48.000;7.840;2023-02-28T07:42:24;1.90;99.90
1225;DHT22;602;48.000;7.840;2023-02-28T07:45:07;1.90;99.90
1225;DHT22;602;48.000;7.840;2023-02-28T07:47:49;2.00;99.90
1225;DHT22;602;48.000;7.840;2023-02-28T07:50:32;2.00;99.90
1225;DHT22;602;48.000;7.840;2023-02-28T07:53:24;1.90;99.90
1225;DHT22;602;48.000;7.840;2023-02-28T07:55:56;2.90;99.90
1225;DHT22;602;48.000;7.840;2023-02-28T07:58:24;3.40;99.90
1225;DHT22;602;48.000;7.840;2023-02-28T08:00:52;3.90;99.90
1225;DHT22;602;48.000;7.840;2023-02-28T08:03:20;3.90;99.90
1225;DHT22;602;48.000;7.840;2023-02-28T08:05:48;3.80;99.90
1225;DHT22;602;48.000;7.840;2023-02-28T08:08:15;3.70;99.90
1225;DHT22;602;48.000;7.840;2023-02-28T08:10:42;3.60;99.90
1225;DHT22;602;48.000;7.840;2023-02-28T08:13:09;3.50;99.90
1225;DHT22;602;48.000;7.840;2023-02-28T08:15:36;3.40;99.90
1225;DHT22;602;48.000;7.840;2023-02-28T08:18:05;3.40;99.90
1225;DHT22;602;48.000;7.840;2023-02-28T08:20:31;3.40;99.90
1225;DHT22;602;48.000;7.840;2023-02-28T08:22:58;3.30;99.90
1225;DHT22;602;48.000;7.840;2023-02-28T08:25:25;3.30;99.90
1225;DHT22;602;48.000;7.840;2023-02-28T08:27:52;3.50;99.90
1225;DHT22;602;48.000;7.840;2023-02-28T08:30:20;3.50;99.90
1225;DHT22;602;48.000;7.840;2023-02-28T08:32:46;3.60;99.90
1225;DHT22;602;48.000;7.840;2023-02-28T08:35:15;3.70;99.90
1225;DHT22;602;48.000;7.840;2023-02-28T08:37:42;3.80;99.90
1225;DHT22;602;48.000;7.840;2023-02-28T08:40:09;3.90;99.90
1225;DHT22;602;48.000;7.840;2023-02-28T08:42:38;3.90;99.90
1225;DHT22;602;48.000;7.840;2023-02-28T08:45:06;3.90;99.90
1225;DHT22;602;48.000;7.840;2023-02-28T08:47:33;3.90;99.90
1225;DHT22;602;48.000;7.840;2023-02-28T08:50:00;3.90;99.90
1225;DHT22;602;48.000;7.840;2023-02-28T08:52:28;3.90;99.90
1225;DHT22;602;48.000;7.840;2023-02-28T08:54:55;3.90;99.90
1225;DHT22;602;48.000;7.840;2023-02-28T08:57:22;4.00;99.90
1225;DHT22;602;48.000;7.840;2023-02-28T08:59:51;4.20;99.90
1225;DHT22;602;48.000;7.840;2023-02-28T09:02:18;4.30;99.90
1225;DHT22;602;48.000;7.840;2023-02-28T09:04:45;4.60;99.90
1225;DHT22;602;48.000;7.840;2023-02-28T09:07:12;4.90;99.90
1225;DHT22;602;48.000;7.840;2023-02-28T09:09:40;5.20;99.90
1225;DHT22;602;48.000;7.840;2023-02-28T09:12:19;5.50;99.90
1225;DHT22;602;48.000;7.840;2023-02-28T09:14:46;5.80;99.90
1225;DHT22;602;48.000;7.840;2023-02-28T09:17:12;6.00;99.90
1225;DHT22;602;48.000;7.840;2023-02-28T09:19:40;6.50;99.90
1225;DHT22;602;48.000;7.840;2023-02-28T09:22:08;6.60;99.90
1225;DHT22;602;48.000;7.840;2023-02-28T09:24:35;6.90;99.90
1225;DHT22;602;48.000;7.840;2023-02-28T09:27:04;6.60;99.90
1225;DHT22;602;48.000;7.840;2023-02-28T09:29:32;6.70;99.90
1225;DHT22;602;48.000;7.840;2023-02-28T09:31:59;6.70;99.90
1225;DHT22;602;48.000;7.840;2023-02-28T09:34:29;6.70;99.90
1225;DHT22;602;48.000;7.840;2023-02-28T09:36:57;6.50;99.90
1225;DHT22;602;48.000;7.840;2023-02-28T09:39:24;6.20;99.90
1225;DHT22;602;48.000;7.840;2023-02-28T09:41:53;6.50;99.90
1225;DHT22;602;48.000;7.840;2023-02-28T09:44:26;6.90;99.90
1225;DHT22;602;48.000;7.840;2023-02-28T09:46:58;7.10;99.90
1225;DHT22;602;48.000;7.840;2023-02-28T09:49:33;7.50;99.90
1225;DHT22;602;48.000;7.840;2023-02-28T09:52:03;7.90;99.90
1225;DHT22;602;48.000;7.840;2023-02-28T09:54:32;7.90;99.90
1225;DHT22;602;48.000;7.840;2023-02-28T09:57:04;7.70;99.90
1225;DHT22;602;48.000;7.840;2023-02-28T09:59:41;7.90;99.90
1225;DHT22;602;48.000;7.840;2023-02-28T10:02:33;8.10;99.90
1225;DHT22;602;48.000;7.840;2023-02-28T10:05:09;8.10;99.90
1225;DHT22;602;48.000;7.840;2023-02-28T10:07:55;8.40;99.90
1225;DHT22;602;48.000;7.840;2023-02-28T10:10:28;8.20;99.90
1225;DHT22;602;48.000;7.840;2023-02-28T10:12:58;8.20;99.90
1225;DHT22;602;48.000;7.840;2023-02-28T10:15:30;7.80;99.90
1225;DHT22;602;48.000;7.840;2023-02-28T10:18:00;8.10;99.90
1225;DHT22;602;48.000;7.840;2023-02-28T10:20:28;8.20;99.90
1225;DHT22;602;48.000;7.840;2023-02-28T10:23:00;8.50;99.90
1225;DHT22;602;48.000;7.840;2023-02-28T10:25:34;8.80;99.90
1225;DHT22;602;48.000;7.840;2023-02-28T10:28:05;9.00;99.90
1225;DHT22;602;48.000;7.840;2023-02-28T10:30:37;9.00;99.90
1225;DHT22;602;48.000;7.840;2023-02-28T10:33:14;9.00;99.90
1225;DHT22;602;48.000;7.840;2023-02-28T10:35:43;8.90;99.90
1225;DHT22;602;48.000;7.840;2023-02-28T10:38:16;8.90;99.90
1225;DHT22;602;48.000;7.840;2023-02-28T10:40:48;9.20;99.90
1225;DHT22;602;48.000;7.840;2023-02-28T10:43:23;9.10;99.90
1225;DHT22;602;48.000;7.840;2023-02-28T10:46:15;8.90;99.90
1225;DHT22;602;48.000;7.840;2023-02-28T10:49:11;9.00;99.90
1225;DHT22;602;48.000;7.840;2023-02-28T10:51:42;9.20;99.90
1225;DHT22;602;48.000;7.840;2023-02-28T10:54:29;9.30;99.90
1225;DHT22;602;48.000;7.840;2023-02-28T10:57:20;9.30;99.90
1225;DHT22;602;48.000;7.840;2023-02-28T11:00:12;9.40;99.90
1225;DHT22;602;48.000;7.840;2023-02-28T11:03:28;8.70;99.90
1225;DHT22;602;48.000;7.840;2023-02-28T11:09:41;9.50;99.90
1225;DHT22;602;48.000;7.840;2023-02-28T11:12:26;9.90;99.90
1225;DHT22;602;48.000;7.840;2023-02-28T11:15:34;10.20;99.90
1225;DHT22;602;48.000;7.840;2023-02-28T11:18:37;10.50;99.90
1225;DHT22;602;48.000;7.840;2023-02-28T11:21:15;10.30;99.90
1225;DHT22;602;48.000;7.840;2023-02-28T11:24:04;10.50;99.90
1225;DHT22;602;48.000;7.840;2023-02-28T11:26:44;10.80;99.90
1225;DHT22;602;48.000;7.840;2023-02-28T11:29:27;11.10;99.90
1225;DHT22;602;48.000;7.840;2023-02-28T11:32:20;10.80;99.90
1225;DHT22;602;48.000;7.840;2023-02-28T11:35:20;10.60;99.90
1225;DHT22;602;48.000;7.840;2023-02-28T11:38:08;10.50;99.90
1225;DHT22;602;48.000;7.840;2023-02-28T11:40:47;10.90;99.90
1225;DHT22;602;48.000;7.840;2023-02-28T11:43:30;10.60;99.90
1225;DHT22;602;48.000;7.840;2023-02-28T11:46:21;10.40;99.90
1225;DHT22;602;48.000;7.840;2023-02-28T11:49:05;10.00;99.90
1225;DHT22;602;48.000;7.840;2023-02-28T11:51:59;10.40;99.90
1225;DHT22;602;48.000;7.840;2023-02-28T11:55:02;10.40;99.90
1225;DHT22;602;48.000;7.840;2023-02-28T11:58:16;10.40;99.90
1225;DHT22;602;48.000;7.840;2023-02-28T12:01:13;10.50;99.90
1225;DHT22;602;48.000;7.840;2023-02-28T12:03:57;10.50;99.90
1225;DHT22;602;48.000;7.840;2023-02-28T12:06:36;10.70;99.90
1225;DHT22;602;48.000;7.840;2023-02-28T12:09:40;10.70;99.90
1225;DHT22;602;48.000;7.840;2023-02-28T12:12:43;10.50;99.90
1225;DHT22;602;48.000;7.840;2023-02-28T12:15:46;10.30;99.90
1225;DHT22;602;48.000;7.840;2023-02-28T12:18:53;9.70;99.90
1225;DHT22;602;48.000;7.840;2023-02-28T12:21:54;9.40;99.90
1225;DHT22;602;48.000;7.840;2023-02-28T12:24:44;8.80;99.90
1225;DHT22;602;48.000;7.840;2023-02-28T12:27:17;8.80;99.90
1225;DHT22;602;48.000;7.840;2023-02-28T12:29:52;8.80;99.90
1225;DHT22;602;48.000;7.840;2023-02-28T12:32:26;8.90;99.90
1225;DHT22;602;48.000;7.840;2023-02-28T12:34:58;8.80;99.90
1225;DHT22;602;48.000;7.840;2023-02-28T12:37:33;8.80;99.90
1225;DHT22;602;48.000;7.840;2023-02-28T12:40:12;8.90;99.90
1225;DHT22;602;48.000;7.840;2023-02-28T12:42:42;8.70;99.90
1225;DHT22;602;48.000;7.840;2023-02-28T12:45:17;8.60;99.90
1225;DHT22;602;48.000;7.840;2023-02-28T12:47:50;8.40;99.90
1225;DHT22;602;48.000;7.840;2023-02-28T12:50:20;8.40;99.90
1225;DHT22;602;48.000;7.840;2023-02-28T12:52:54;8.40;99.90
1225;DHT22;602;48.000;7.840;2023-02-28T12:55:31;8.40;99.90
1225;DHT22;602;48.000;7.840;2023-02-28T12:58:07;8.10;99.90
1225;DHT22;602;48.000;7.840;2023-02-28T13:00:38;8.20;99.90
1225;DHT22;602;48.000;7.840;2023-02-28T13:03:30;8.20;99.90
1225;DHT22;602;48.000;7.840;2023-02-28T13:06:15;8.30;99.90
1225;DHT22;602;48.000;7.840;2023-02-28T13:11:49;9.20;99.90
1225;DHT22;602;48.000;7.840;2023-02-28T13:14:24;9.30;99.90
1225;DHT22;602;48.000;7.840;2023-02-28T13:16:59;9.10;99.90
1225;DHT22;602;48.000;7.840;2023-02-28T13:19:28;9.10;99.90
1225;DHT22;602;48.000;7.840;2023-02-28T13:21:57;9.00;99.90
1225;DHT22;602;48.000;7.840;2023-02-28T13:24:43;8.90;99.90
1225;DHT22;602;48.000;7.840;2023-02-28T13:27:23;8.90;99.90
1225;DHT22;602;48.000;7.840;2023-02-28T13:29:52;8.60;99.90
1225;DHT22;602;48.000;7.840;2023-02-28T13:32:40;8.80;99.90
1225;DHT22;602;48.000;7.840;2023-02-28T13:35:42;8.90;99.90
1225;DHT22;602;48.000;7.840;2023-02-28T13:38:35;8.50;99.90
1225;DHT22;602;48.000;7.840;2023-02-28T13:44:08;8.40;99.90
1225;DHT22;602;48.000;7.840;2023-02-28T13:47:13;8.50;99.90
1225;DHT22;602;48.000;7.840;2023-02-28T13:49:28;8.30;99.90
1225;DHT22;602;48.000;7.840;2023-02-28T13:52:09;8.10;99.90
1225;DHT22;602;48.000;7.840;2023-02-28T13:54:55;8.30;99.90
1225;DHT22;602;48.000;7.840;2023-02-28T13:57:32;8.40;99.90
1225;DHT22;602;48.000;7.840;2023-02-28T14:00:15;8.50;99.90
1225;DHT22;602;48.000;7.840;2023-02-28T14:02:55;8.40;99.90
1225;DHT22;602;48.000;7.840;2023-02-28T14:05:30;8.50;99.90
1225;DHT22;602;48.000;7.840;2023-02-28T14:08:04;8.30;99.90
1225;DHT22;602;48.000;7.840;2023-02-28T14:10:36;8.10;99.90
1225;DHT22;602;48.000;7.840;2023-02-28T14:16:00;8.40;99.90
1225;DHT22;602;48.000;7.840;2023-02-28T14:18:30;8.70;99.90
1225;DHT22;602;48.000;7.840;2023-02-28T14:21:03;8.80;99.90
1225;DHT22;602;48.000;7.840;2023-02-28T14:24:05;9.00;99.90
1225;DHT22;602;48.000;7.840;2023-02-28T14:26:57;9.10;99.90
1225;DHT22;602;48.000;7.840;2023-02-28T14:30:03;8.70;99.90
1225;DHT22;602;48.000;7.840;2023-02-28T14:32:41;8.80;99.90
1225;DHT22;602;48.000;7.840;2023-02-28T14:35:20;8.80;99.90
1225;DHT22;602;48.000;7.840;2023-02-28T14:37:50;8.80;99.90
1225;DHT22;602;48.000;7.840;2023-02-28T14:40:20;8.80;99.90
1225;DHT22;602;48.000;7.840;2023-02-28T14:42:54;8.70;99.90
1225;DHT22;602;48.000;7.840;2023-02-28T14:45:22;8.50;99.90
1225;DHT22;602;48.000;7.840;2023-02-28T14:47:50;8.40;99.90
1225;DHT22;602;48.000;7.840;2023-02-28T14:50:19;8.30;99.90
1225;DHT22;602;48.000;7.840;2023-02-28T14:52:46;8.20;99.90
1225;DHT22;602;48.000;7.840;2023-02-28T14:55:18;8.10;99.90
1225;DHT22;602;48.000;7.840;2023-02-28T14:57:51;8.20;99.90
1225;DHT22;602;48.000;7.840;2023-02-28T15:00:23;8.10;99.90
1225;DHT22;602;48.000;7.840;2023-02-28T15:02:50;8.00;99.90
1225;DHT22;602;48.000;7.840;2023-02-28T15:05:29;8.20;99.90
1225;DHT22;602;48.000;7.840;2023-02-28T15:08:05;8.10;99.90
1225;DHT22;602;48.000;7.840;2023-02-28T15:10:34;8.20;99.90
1225;DHT22;602;48.000;7.840;2023-02-28T15:13:04;8.00;99.90
1225;DHT22;602;48.000;7.840;2023-02-28T15:15:41;7.80;99.90
1225;DHT22;602;48.000;7.840;2023-02-28T15:18:15;7.50;99.90
1225;DHT22;602;48.000;7.840;2023-02-28T15:20:44;7.20;99.90
1225;DHT22;602;48.000;7.840;2023-02-28T15:23:11;7.20;99.90
1225;DHT22;602;48.000;7.840;2023-02-28T15:25:40;6.90;99.90
1225;DHT22;602;48.000;7.840;2023-02-28T15:28:14;7.00;99.90
1225;DHT22;602;48.000;7.840;2023-02-28T15:30:52;6.70;99.90
1225;DHT22;602;48.000;7.840;2023-02-28T15:33:20;6.60;99.90
1225;DHT22;602;48.000;7.840;2023-02-28T15:35:47;6.70;99.90
1225;DHT22;602;48.000;7.840;2023-02-28T15:38:18;6.50;99.90
1225;DHT22;602;48.000;7.840;2023-02-28T15:40:52;6.30;99.90
1225;DHT22;602;48.000;7.840;2023-02-28T15:43:27;6.30;99.90
1225;DHT22;602;48.000;7.840;2023-02-28T15:45:58;6.30;99.90
1225;DHT22;602;48.000;7.840;2023-02-28T15:48:28;6.30;99.90
1225;DHT22;602;48.000;7.840;2023-02-28T15:50:57;6.20;99.90
1225;DHT22;602;48.000;7.840;2023-02-28T15:53:28;5.90;99.90
1225;DHT22;602;48.000;7.840;2023-02-28T15:56:00;6.10;99.90
1225;DHT22;602;48.000;7.840;2023-02-28T15:58:29;6.40;99.90
1225;DHT22;602;48.000;7.840;2023-02-28T16:01:07;6.40;99.90
1225;DHT22;602;48.000;7.840;2023-02-28T16:03:40;6.10;99.90
1225;DHT22;602;48.000;7.840;2023-02-28T16:09:12;6.20;99.90
1225;DHT22;602;48.000;7.840;2023-02-28T16:11:43;6.30;99.90
1225;DHT22;602;48.000;7.840;2023-02-28T16:14:15;6.20;99.90
1225;DHT22;602;48.000;7.840;2023-02-28T16:16:44;6.20;99.90
1225;DHT22;602;48.000;7.840;2023-02-28T16:19:11;6.20;99.90
1225;DHT22;602;48.000;7.840;2023-02-28T16:21:38;6.20;99.90
1225;DHT22;602;48.000;7.840;2023-02-28T16:24:06;6.20;99.90
1225;DHT22;602;48.000;7.840;2023-02-28T16:26:33;6.30;99.90
1225;DHT22;602;48.000;7.840;2023-02-28T16:29:04;6.30;99.90
1225;DHT22;602;48.000;7.840;2023-02-28T16:31:34;6.20;99.90
1225;DHT22;602;48.000;7.840;2023-02-28T16:34:02;6.20;99.90
1225;DHT22;602;48.000;7.840;2023-02-28T16:36:29;6.20;99.90
1225;DHT22;602;48.000;7.840;2023-02-28T16:38:56;6.10;99.90
1225;DHT22;602;48.000;7.840;2023-02-28T16:41:25;5.90;99.90
1225;DHT22;602;48.000;7.840;2023-02-28T16:43:54;6.00;99.90
1225;DHT22;602;48.000;7.840;2023-02-28T16:46:27;6.00;99.90
1225;DHT22;602;48.000;7.840;2023-02-28T16:48:57;6.00;99.90
1225;DHT22;602;48.000;7.840;2023-02-28T16:51:24;6.10;99.90
1225;DHT22;602;48.000;7.840;2023-02-28T16:53:51;6.10;99.90
1225;DHT22;602;48.000;7.840;2023-02-28T16:56:19;6.00;99.90
1225;DHT22;602;48.000;7.840;2023-02-28T16:58:48;5.90;99.90
1225;DHT22;602;48.000;7.840;2023-02-28T17:01:15;6.10;99.90
1225;DHT22;602;48.000;7.840;2023-02-28T17:03:43;6.20;99.90
1225;DHT22;602;48.000;7.840;2023-02-28T17:06:17;6.30;99.90
1225;DHT22;602;48.000;7.840;2023-02-28T17:08:46;6.20;99.90
1225;DHT22;602;48.000;7.840;2023-02-28T17:11:13;6.20;99.90
1225;DHT22;602;48.000;7.840;2023-02-28T17:13:40;6.10;99.90
1225;DHT22;602;48.000;7.840;2023-02-28T17:16:15;6.20;99.90
1225;DHT22;602;48.000;7.840;2023-02-28T17:18:45;6.20;99.90
1225;DHT22;602;48.000;7.840;2023-02-28T17:21:13;6.10;99.90
1225;DHT22;602;48.000;7.840;2023-02-28T17:23:40;6.00;99.90
1225;DHT22;602;48.000;7.840;2023-02-28T17:26:12;5.90;99.90
1225;DHT22;602;48.000;7.840;2023-02-28T17:28:39;5.90;99.90
1225;DHT22;602;48.000;7.840;2023-02-28T17:31:07;6.00;99.90
1225;DHT22;602;48.000;7.840;2023-02-28T17:33:34;6.10;99.90
1225;DHT22;602;48.000;7.840;2023-02-28T17:36:03;6.20;99.90
1225;DHT22;602;48.000;7.840;2023-02-28T17:38:30;6.30;99.90